Time;durP1;ratioP1;P1;durP2;ratioP2;P2;SDS_P1;SDS_P2;PMS_P1;PMS_P2;Temp;Humidity;BMP_temperature;BMP_pressure;BME280_temperature;BME280_humidity;BME280_pressure;Samples;Min_cycle;Max_cycle;Signal;HPM_P1;HPM_P2
2022/09/23 00:00:35;;;;;;;11.27;5.18;;;;;;;-142.57;100.00;68379.81;5054154;28;20020;-77
2022/09/23 00:03:00;;;;;;;7.35;4.63;;;;;;;-142.57;100.00;68379.81;5054231;28;20490;-78
2022/09/23 00:05:26;;;;;;;6.60;4.22;;;;;;;-142.57;100.00;68379.81;5063960;28;20447;-79
2022/09/23 00:07:53;;;;;;;6.72;4.45;;;;;;;-142.57;100.00;68379.81;5053264;28;20037;-79
2022/09/23 00:10:18;;;;;;;6.97;4.18;;;;;;;-142.57;100.00;68379.81;5053211;28;20021;-79
2022/09/23 00:12:43;;;;;;;6.28;4.25;;;;;;;-142.57;100.00;68379.81;5054481;28;20035;-79
2022/09/23 00:15:10;;;;;;;6.07;4.38;;;;;;;-142.57;100.00;68379.81;5032999;28;20029;-79
2022/09/23 00:17:35;;;;;;;5.47;3.92;;;;;;;-142.57;100.00;68379.81;5084697;28;20048;-79
2022/09/23 00:20:01;;;;;;;10.05;4.53;;;;;;;-142.57;100.00;68379.81;5059404;28;20451;-79
2022/09/23 00:22:26;;;;;;;7.47;4.25;;;;;;;-142.57;100.00;68379.81;5057240;28;20067;-78
2022/09/23 00:24:51;;;;;;;6.68;4.25;;;;;;;-142.57;100.00;68379.81;5056424;28;20092;-78
2022/09/23 00:27:19;;;;;;;6.68;4.40;;;;;;;-142.57;100.00;68379.81;5060340;28;20056;-78
2022/09/23 00:29:45;;;;;;;6.32;3.67;;;;;;;-142.57;100.00;68379.81;5060727;28;20047;-77
2022/09/23 00:32:10;;;;;;;6.75;4.15;;;;;;;-142.57;100.00;68379.81;5062964;28;20479;-77
2022/09/23 00:34:36;;;;;;;6.28;4.32;;;;;;;-142.57;100.00;68379.81;5053616;28;20479;-78
2022/09/23 00:37:01;;;;;;;7.47;4.32;;;;;;;-142.57;100.00;68379.81;5052551;28;20496;-77
2022/09/23 00:39:27;;;;;;;7.10;4.13;;;;;;;-142.57;100.00;68379.81;5050143;28;20036;-77
2022/09/23 00:41:53;;;;;;;6.82;3.97;;;;;;;-142.57;100.00;68379.81;5051987;28;20148;-78
2022/09/23 00:44:50;;;;;;;13.35;4.13;;;;;;;-142.57;100.00;68379.81;5042816;28;20016;-78
2022/09/23 00:47:21;;;;;;;9.32;4.32;;;;;;;-142.57;100.00;68379.81;5047076;28;20094;-78
2022/09/23 00:49:52;;;;;;;13.55;4.15;;;;;;;-142.57;100.00;68379.81;5053172;28;20025;-77
2022/09/23 00:52:19;;;;;;;4.75;3.50;;;;;;;-142.57;100.00;68379.81;5050669;28;20578;-77
2022/09/23 00:54:46;;;;;;;7.22;3.60;;;;;;;-142.57;100.00;68379.81;5063428;28;20032;-77
2022/09/23 00:57:14;;;;;;;5.13;4.05;;;;;;;-142.57;100.00;68379.81;5052076;28;20110;-77
2022/09/23 00:59:40;;;;;;;6.20;3.90;;;;;;;-142.57;100.00;68379.81;5052437;28;20029;-77
2022/09/23 01:02:05;;;;;;;9.50;4.90;;;;;;;-142.57;100.00;68379.81;5052044;28;20487;-77
2022/09/23 01:04:31;;;;;;;6.55;4.28;;;;;;;-142.57;100.00;68379.81;5046701;28;21112;-77
2022/09/23 01:06:56;;;;;;;7.55;4.25;;;;;;;-142.57;100.00;68379.81;5047625;28;20494;-78
2022/09/23 01:09:22;;;;;;;7.72;4.40;;;;;;;-142.57;100.00;68379.81;5037210;28;20036;-77
2022/09/23 01:11:56;;;;;;;5.88;4.38;;;;;;;-142.57;100.00;68379.81;5055223;28;20028;-77
2022/09/23 01:14:46;;;;;;;11.15;4.35;;;;;;;-142.57;100.00;68379.81;5052785;28;20013;-77
2022/09/23 01:17:21;;;;;;;6.47;4.15;;;;;;;-142.57;100.00;68379.81;5048099;28;20125;-77
2022/09/23 01:20:20;;;;;;;5.93;3.75;;;;;;;-142.57;100.00;68379.81;5046310;28;20017;-77
2022/09/23 01:23:30;;;;;;;8.32;4.22;;;;;;;-142.57;100.00;68379.81;5048651;28;20396;-78
2022/09/23 01:26:21;;;;;;;6.20;4.25;;;;;;;-142.57;100.00;68379.81;5066109;28;20020;-77
2022/09/23 01:29:36;;;;;;;4.93;3.58;;;;;;;-142.57;100.00;68379.81;5041049;28;20026;-77
2022/09/23 01:32:03;;;;;;;6.07;4.00;;;;;;;-142.57;100.00;68379.81;5044794;28;20076;-77
2022/09/23 01:34:41;;;;;;;7.28;4.13;;;;;;;-142.57;100.00;68379.81;5057785;28;20047;-77
2022/09/23 01:37:27;;;;;;;8.98;4.53;;;;;;;-142.57;100.00;68379.81;5039452;28;20060;-77
2022/09/23 01:39:52;;;;;;;6.55;4.20;;;;;;;-142.57;100.00;68379.81;5051536;28;20434;-77
2022/09/23 01:42:34;;;;;;;6.80;3.75;;;;;;;-142.57;100.00;68379.81;5045808;28;20016;-77
2022/09/23 01:45:15;;;;;;;10.23;4.03;;;;;;;-142.57;100.00;68379.81;5063454;28;20021;-77
2022/09/23 01:47:50;;;;;;;8.60;4.15;;;;;;;-142.57;100.00;68379.81;5064713;28;20070;-77
2022/09/23 01:53:20;;;;;;;8.52;4.20;;;;;;;-142.57;100.00;68379.81;5021049;28;20388;-77
2022/09/23 01:55:50;;;;;;;9.68;4.15;;;;;;;-142.57;100.00;68379.81;5047923;28;20159;-77
2022/09/23 01:58:31;;;;;;;9.25;3.80;;;;;;;-142.57;100.00;68379.81;5030824;28;20021;-81
2022/09/23 02:01:02;;;;;;;10.70;4.22;;;;;;;-142.57;100.00;68379.81;5043283;28;20033;-82
2022/09/23 02:03:42;;;;;;;9.50;4.75;;;;;;;-142.57;100.00;68379.81;5026698;28;20033;-81
2022/09/23 02:06:29;;;;;;;8.02;4.35;;;;;;;-142.57;100.00;68379.81;5037011;28;20020;-79
2022/09/23 02:09:14;;;;;;;6.75;4.00;;;;;;;-142.57;100.00;68379.81;5040691;28;20056;-80
2022/09/23 02:11:44;;;;;;;8.30;4.20;;;;;;;-142.57;100.00;68379.81;5055562;28;20021;-80
2022/09/23 02:14:24;;;;;;;11.15;5.18;;;;;;;-142.57;100.00;68379.81;5047416;28;20024;-80
2022/09/23 02:16:55;;;;;;;9.23;4.32;;;;;;;-142.57;100.00;68379.81;5083903;28;20102;-80
2022/09/23 02:19:31;;;;;;;6.85;4.15;;;;;;;-142.57;100.00;68379.81;5051067;28;20559;-80
2022/09/23 02:22:08;;;;;;;7.65;4.05;;;;;;;-142.57;100.00;68379.81;5051994;28;20021;-80
2022/09/23 02:24:36;;;;;;;7.47;4.70;;;;;;;-142.57;100.00;68379.81;5079864;28;20047;-80
2022/09/23 02:27:11;;;;;;;6.43;4.50;;;;;;;-142.57;100.00;68379.81;5051079;28;20017;-79
2022/09/23 02:29:52;;;;;;;7.72;4.38;;;;;;;-142.57;100.00;68379.81;5052427;28;20071;-79
2022/09/23 02:32:33;;;;;;;8.07;4.10;;;;;;;-142.57;100.00;68379.81;5049712;28;20487;-79
2022/09/23 02:35:23;;;;;;;7.03;4.40;;;;;;;-142.57;100.00;68379.81;5055736;28;20028;-81
2022/09/23 02:38:24;;;;;;;6.45;4.05;;;;;;;-142.57;100.00;68379.81;5043646;28;20053;-79
2022/09/23 02:41:03;;;;;;;11.38;5.00;;;;;;;-142.57;100.00;68379.81;5029585;28;20114;-78
2022/09/23 02:43:55;;;;;;;11.10;5.05;;;;;;;-142.57;100.00;68379.81;5003843;28;20017;-79
2022/09/23 02:46:21;;;;;;;7.32;4.65;;;;;;;-142.57;100.00;68379.81;5005214;28;20777;-79
2022/09/23 02:49:19;;;;;;;6.53;4.07;;;;;;;-142.57;100.00;68379.81;5012248;28;20048;-78
2022/09/23 02:51:45;;;;;;;5.82;4.07;;;;;;;-142.57;100.00;68379.81;5011953;28;20039;-78
2022/09/23 02:54:13;;;;;;;7.57;4.97;;;;;;;-142.57;100.00;68379.81;5005163;28;20137;-79
2022/09/23 02:56:39;;;;;;;6.63;4.47;;;;;;;-142.57;100.00;68379.81;5001533;28;20036;-78
2022/09/23 02:59:06;;;;;;;5.65;3.67;;;;;;;-142.57;100.00;68379.81;5014927;28;20052;-78
2022/09/23 03:02:03;;;;;;;7.05;3.90;;;;;;;-142.57;100.00;68379.81;5019658;28;20788;-78
2022/09/23 03:04:46;;;;;;;9.68;4.15;;;;;;;-142.57;100.00;68379.81;5013079;28;20044;-78
2022/09/23 03:07:41;;;;;;;7.40;4.28;;;;;;;-142.57;100.00;68379.81;5012919;28;20053;-78
2022/09/23 03:10:16;;;;;;;5.30;3.97;;;;;;;-142.57;100.00;68379.81;5010868;28;20139;-78
2022/09/23 03:13:03;;;;;;;8.95;4.35;;;;;;;-142.57;100.00;68379.81;5012134;28;20060;-78
2022/09/23 03:15:51;;;;;;;6.03;3.83;;;;;;;-142.57;100.00;68379.81;5011767;28;20024;-78
2022/09/23 03:18:24;;;;;;;10.05;3.90;;;;;;;-142.57;100.00;68379.81;5009812;28;20024;-77
2022/09/23 03:20:51;;;;;;;5.95;3.75;;;;;;;-142.57;100.00;68379.81;5011851;28;20058;-78
2022/09/23 03:23:23;;;;;;;5.93;3.75;;;;;;;-142.57;100.00;68379.81;4991744;28;20061;-78
2022/09/23 03:25:52;;;;;;;8.35;3.58;;;;;;;-142.57;100.00;68379.81;4997560;28;20079;-78
2022/09/23 03:28:19;;;;;;;9.15;4.18;;;;;;;-142.57;100.00;68379.81;4994780;28;20890;-78
2022/09/23 03:30:44;;;;;;;7.03;3.88;;;;;;;-142.57;100.00;68379.81;5011571;28;20029;-78
2022/09/23 03:33:12;;;;;;;13.30;4.20;;;;;;;-142.57;100.00;68379.81;5003933;28;20087;-78
2022/09/23 03:38:31;;;;;;;8.85;3.72;;;;;;;-142.57;100.00;68379.81;5026331;28;20035;-78
2022/09/23 03:41:00;;;;;;;7.75;3.53;;;;;;;-142.57;100.00;68379.81;5002972;28;20013;-77
2022/09/23 03:43:25;;;;;;;6.88;3.53;;;;;;;-142.57;100.00;68379.81;5001179;28;20026;-78
2022/09/23 03:45:53;;;;;;;6.70;3.33;;;;;;;-142.57;100.00;68379.81;5008753;28;20053;-77
2022/09/23 03:48:21;;;;;;;11.55;3.50;;;;;;;-142.57;100.00;68379.81;5002047;28;20020;-77
2022/09/23 03:50:47;;;;;;;5.10;3.10;;;;;;;-142.57;100.00;68379.81;5013348;28;20056;-77
2022/09/23 03:53:13;;;;;;;8.90;3.45;;;;;;;-142.57;100.00;68379.81;5012177;28;20020;-76
2022/09/23 03:55:39;;;;;;;6.03;3.65;;;;;;;-142.57;100.00;68379.81;4992338;28;20140;-77
2022/09/23 03:58:05;;;;;;;7.78;3.92;;;;;;;-142.57;100.00;68379.81;5011640;28;20489;-77
2022/09/23 04:00:30;;;;;;;6.20;3.50;;;;;;;-142.57;100.00;68379.81;5012161;28;20028;-77
2022/09/23 04:02:56;;;;;;;5.47;3.05;;;;;;;-142.57;100.00;68379.81;5012342;28;20021;-78
2022/09/23 04:05:21;;;;;;;5.45;3.45;;;;;;;-142.57;100.00;68379.81;4994195;28;20028;-78
2022/09/23 04:07:48;;;;;;;4.65;2.95;;;;;;;-142.57;100.00;68379.81;5010972;28;20035;-78
2022/09/23 04:10:13;;;;;;;5.20;3.25;;;;;;;-142.57;100.00;68379.81;5018308;28;20115;-78
2022/09/23 04:12:38;;;;;;;7.38;3.17;;;;;;;-142.57;100.00;68379.81;5011950;28;20021;-77
2022/09/23 04:15:04;;;;;;;5.43;3.13;;;;;;;-142.57;100.00;68379.81;5013804;28;20050;-77
2022/09/23 04:17:30;;;;;;;5.22;3.03;;;;;;;-142.57;100.00;68379.81;5010615;28;20033;-79
2022/09/23 04:19:55;;;;;;;8.95;2.97;;;;;;;-142.57;100.00;68379.81;5011788;28;20021;-78
2022/09/23 04:22:21;;;;;;;6.25;2.80;;;;;;;-142.57;100.00;68379.81;5012727;28;20024;-78
2022/09/23 04:24:46;;;;;;;5.53;3.20;;;;;;;-142.57;100.00;68379.81;5009984;28;20065;-77
2022/09/23 04:27:11;;;;;;;6.00;3.08;;;;;;;-142.57;100.00;68379.81;5012038;28;20936;-78
2022/09/23 04:29:37;;;;;;;5.25;3.03;;;;;;;-142.57;100.00;68379.81;5015062;28;20929;-77
2022/09/23 04:32:02;;;;;;;5.63;3.10;;;;;;;-142.57;100.00;68379.81;5006320;28;20103;-78
2022/09/23 04:34:27;;;;;;;6.45;3.13;;;;;;;-142.57;100.00;68379.81;5022185;28;20020;-81
2022/09/23 04:36:53;;;;;;;5.47;2.90;;;;;;;-142.57;100.00;68379.81;5014300;28;20781;-80
2022/09/23 04:39:18;;;;;;;4.13;2.70;;;;;;;-142.57;100.00;68379.81;5019262;28;20025;-81
2022/09/23 04:41:44;;;;;;;6.18;2.42;;;;;;;-142.57;100.00;68379.81;5021208;28;20031;-78
2022/09/23 04:44:13;;;;;;;8.40;3.00;;;;;;;-142.57;100.00;68379.81;5013381;28;20087;-77
2022/09/23 04:46:42;;;;;;;4.22;2.60;;;;;;;-142.57;100.00;68379.81;5026801;28;20029;-79
2022/09/23 04:49:07;;;;;;;4.65;2.88;;;;;;;-142.57;100.00;68379.81;5052391;28;20054;-78
2022/09/23 04:51:33;;;;;;;6.30;2.90;;;;;;;-142.57;100.00;68379.81;5053634;28;20041;-78
2022/09/23 04:53:58;;;;;;;3.85;2.65;;;;;;;-142.57;100.00;68379.81;5053940;28;20541;-79
2022/09/23 04:56:27;;;;;;;4.25;2.80;;;;;;;-142.57;100.00;68379.81;5052665;28;20110;-79
2022/09/23 04:58:52;;;;;;;4.20;2.58;;;;;;;-142.57;100.00;68379.81;5052172;28;20028;-78
2022/09/23 05:01:24;;;;;;;5.85;2.80;;;;;;;-142.57;100.00;68379.81;5061195;28;20017;-79
2022/09/23 05:03:50;;;;;;;7.18;2.90;;;;;;;-142.57;100.00;68379.81;5052226;28;20017;-79
2022/09/23 05:06:16;;;;;;;3.92;2.80;;;;;;;-142.57;100.00;68379.81;5057386;28;20012;-78
2022/09/23 05:08:47;;;;;;;3.97;2.78;;;;;;;-142.57;100.00;68379.81;5058276;28;20360;-79
2022/09/23 05:11:12;;;;;;;7.28;2.78;;;;;;;-142.57;100.00;68379.81;5063134;28;20035;-80
2022/09/23 05:13:37;;;;;;;5.22;2.63;;;;;;;-142.57;100.00;68379.81;5044018;28;20453;-81
2022/09/23 05:16:06;;;;;;;5.93;2.80;;;;;;;-142.57;100.00;68379.81;5053003;28;20078;-79
2022/09/23 05:18:33;;;;;;;6.10;3.38;;;;;;;-142.57;100.00;68379.81;5052296;28;20045;-79
2022/09/23 05:20:59;;;;;;;6.38;2.88;;;;;;;-142.57;100.00;68379.81;5052945;28;20104;-79
2022/09/23 05:23:26;;;;;;;8.10;2.80;;;;;;;-142.57;100.00;68379.81;5051451;28;20108;-79
2022/09/23 05:26:02;;;;;;;5.55;3.22;;;;;;;-142.57;100.00;68379.81;5080667;28;20533;-78
2022/09/23 05:28:31;;;;;;;5.30;2.83;;;;;;;-142.57;100.00;68379.81;5051376;28;20044;-78
2022/09/23 05:31:07;;;;;;;7.53;3.08;;;;;;;-142.57;100.00;68379.81;5060425;28;20108;-78
2022/09/23 05:33:34;;;;;;;4.60;2.85;;;;;;;-142.57;100.00;68379.81;5052589;28;20075;-78
2022/09/23 05:36:00;;;;;;;8.98;3.33;;;;;;;-142.57;100.00;68379.81;5045279;28;20025;-78
2022/09/23 05:38:27;;;;;;;4.15;2.50;;;;;;;-142.57;100.00;68379.81;5061464;28;20049;-78
2022/09/23 05:41:00;;;;;;;8.13;2.58;;;;;;;-142.57;100.00;68379.81;5034444;28;20040;-78
2022/09/23 05:43:26;;;;;;;4.63;2.72;;;;;;;-142.57;100.00;68379.81;5056799;28;20079;-78
2022/09/23 05:46:02;;;;;;;4.25;2.50;;;;;;;-142.57;100.00;68379.81;5053967;28;20017;-78
2022/09/23 05:48:32;;;;;;;4.60;2.75;;;;;;;-142.57;100.00;68379.81;5041934;28;20916;-79
2022/09/23 05:50:58;;;;;;;5.63;2.53;;;;;;;-142.57;100.00;68379.81;5016716;28;20016;-79
2022/09/23 05:53:23;;;;;;;6.15;2.85;;;;;;;-142.57;100.00;68379.81;5017937;28;20534;-79
2022/09/23 05:55:49;;;;;;;4.82;2.65;;;;;;;-142.57;100.00;68379.81;5034833;28;20040;-79
2022/09/23 05:58:14;;;;;;;5.18;3.03;;;;;;;-142.57;100.00;68379.81;5019792;28;20035;-78
2022/09/23 06:00:41;;;;;;;4.63;3.10;;;;;;;-142.57;100.00;68379.81;5017039;28;20013;-78
2022/09/23 06:03:17;;;;;;;4.43;3.00;;;;;;;-142.57;100.00;68379.81;5011846;28;20101;-79
2022/09/23 06:05:43;;;;;;;4.60;2.65;;;;;;;-142.57;100.00;68379.81;5015872;28;20919;-79
2022/09/23 06:08:09;;;;;;;5.43;2.95;;;;;;;-142.57;100.00;68379.81;5020430;28;20025;-79
2022/09/23 06:10:41;;;;;;;5.18;2.75;;;;;;;-142.57;100.00;68379.81;5026110;28;20082;-80
2022/09/23 06:13:07;;;;;;;4.70;3.08;;;;;;;-142.57;100.00;68379.81;5016575;28;20036;-81
2022/09/23 06:15:33;;;;;;;5.03;2.67;;;;;;;-142.57;100.00;68379.81;5026700;28;20101;-80
2022/09/23 06:17:58;;;;;;;4.20;2.90;;;;;;;-142.57;100.00;68379.81;5022463;28;20024;-82
2022/09/23 06:20:24;;;;;;;4.80;2.85;;;;;;;-142.57;100.00;68379.81;5028623;28;20021;-81
2022/09/23 06:22:49;;;;;;;5.88;2.40;;;;;;;-142.57;100.00;68379.81;5011830;28;20081;-80
2022/09/23 06:25:15;;;;;;;4.72;2.88;;;;;;;-142.57;100.00;68379.81;5011828;28;20017;-79
2022/09/23 06:27:41;;;;;;;5.95;3.03;;;;;;;-142.57;100.00;68379.81;5019494;28;20813;-79
2022/09/23 06:30:06;;;;;;;4.43;3.20;;;;;;;-142.57;100.00;68379.81;5012560;28;20060;-78
2022/09/23 06:32:32;;;;;;;4.63;2.50;;;;;;;-142.57;100.00;68379.81;5012643;28;20057;-78
2022/09/23 06:34:57;;;;;;;5.55;3.53;;;;;;;-142.57;100.00;68379.81;5014532;28;20087;-78
2022/09/23 06:37:23;;;;;;;5.47;2.33;;;;;;;-142.57;100.00;68379.81;4995042;28;20582;-78
2022/09/23 06:39:48;;;;;;;8.73;2.63;;;;;;;-142.57;100.00;68379.81;5013406;28;20029;-79
2022/09/23 06:42:15;;;;;;;3.85;2.38;;;;;;;-142.57;100.00;68379.81;5010020;28;20109;-79
2022/09/23 06:44:41;;;;;;;5.05;2.78;;;;;;;-142.57;100.00;68379.81;5024610;28;20029;-79
2022/09/23 06:47:06;;;;;;;5.93;3.30;;;;;;;-142.57;100.00;68379.81;5010062;28;20024;-79
2022/09/23 06:49:32;;;;;;;4.53;2.83;;;;;;;-142.57;100.00;68379.81;5011479;28;20145;-79
2022/09/23 06:51:58;;;;;;;5.28;3.38;;;;;;;-142.57;100.00;68379.81;5004920;28;20118;-79
2022/09/23 06:54:27;;;;;;;7.82;3.17;;;;;;;-142.57;100.00;68379.81;5007943;28;20030;-79
2022/09/23 06:56:53;;;;;;;6.63;3.40;;;;;;;-142.57;100.00;68379.81;5011741;28;20025;-80
2022/09/23 06:59:18;;;;;;;6.30;3.30;;;;;;;-142.57;100.00;68379.81;5002987;28;20545;-78
2022/09/23 07:01:45;;;;;;;4.68;3.05;;;;;;;-142.57;100.00;68379.81;5014687;28;20055;-78
2022/09/23 07:04:11;;;;;;;15.40;3.45;;;;;;;-142.57;100.00;68379.81;5011134;28;20025;-78
2022/09/23 07:06:36;;;;;;;5.03;3.17;;;;;;;-142.57;100.00;68379.81;5012287;28;20032;-78
2022/09/23 07:09:02;;;;;;;4.55;2.97;;;;;;;-142.57;100.00;68379.81;5012138;28;20089;-78
2022/09/23 07:11:28;;;;;;;7.15;2.90;;;;;;;-142.57;100.00;68379.81;5011699;28;20025;-79
2022/09/23 07:13:53;;;;;;;6.00;3.25;;;;;;;-142.57;100.00;68379.81;5025046;28;20028;-80
2022/09/23 07:16:19;;;;;;;5.25;2.83;;;;;;;-142.57;100.00;68379.81;5030496;28;20033;-80
2022/09/23 07:18:45;;;;;;;4.38;2.83;;;;;;;-142.57;100.00;68379.81;5005697;28;20023;-79
2022/09/23 07:21:14;;;;;;;5.30;3.38;;;;;;;-142.57;100.00;68379.81;5004244;28;20013;-79
2022/09/23 07:23:47;;;;;;;3.65;2.13;;;;;;;-142.57;100.00;68379.81;5017861;28;20028;-79
2022/09/23 07:26:13;;;;;;;6.22;2.88;;;;;;;-142.57;100.00;68379.81;5015903;28;20025;-79
2022/09/23 07:28:39;;;;;;;4.55;2.35;;;;;;;-142.57;100.00;68379.81;4996286;28;20021;-78
2022/09/23 07:31:07;;;;;;;5.10;2.70;;;;;;;-142.57;100.00;68379.81;5014001;28;20862;-79
2022/09/23 07:33:37;;;;;;;4.35;2.42;;;;;;;-142.57;100.00;68379.81;5017878;28;20024;-79
2022/09/23 07:36:15;;;;;;;6.82;3.03;;;;;;;-142.57;100.00;68379.81;5021619;28;20294;-79
2022/09/23 07:38:40;;;;;;;5.00;2.53;;;;;;;-142.57;100.00;68379.81;5019130;28;20090;-79
2022/09/23 07:41:09;;;;;;;5.78;2.88;;;;;;;-142.57;100.00;68379.81;5000404;28;20025;-79
2022/09/23 07:43:36;;;;;;;4.75;2.78;;;;;;;-142.57;100.00;68379.81;5017632;28;20864;-78
2022/09/23 07:46:05;;;;;;;7.45;2.42;;;;;;;-142.57;100.00;68379.81;5012604;28;20013;-78
2022/09/23 07:48:31;;;;;;;8.02;2.97;;;;;;;-142.57;100.00;68379.81;5012983;28;20025;-78
2022/09/23 07:50:57;;;;;;;5.57;2.80;;;;;;;-142.57;100.00;68379.81;5015262;28;20056;-78
2022/09/23 07:53:22;;;;;;;4.90;2.85;;;;;;;-142.57;100.00;68379.81;5013895;28;20033;-78
2022/09/23 07:55:55;;;;;;;4.43;2.40;;;;;;;-142.57;100.00;68379.81;4999678;28;20029;-78
2022/09/23 07:58:21;;;;;;;4.43;2.88;;;;;;;-142.57;100.00;68379.81;5016560;28;20083;-78
2022/09/23 08:00:47;;;;;;;4.47;2.70;;;;;;;-142.57;100.00;68379.81;4999601;28;20029;-77
2022/09/23 08:03:13;;;;;;;4.60;2.75;;;;;;;-142.57;100.00;68379.81;5014126;28;20119;-79
2022/09/23 08:05:39;;;;;;;6.88;3.10;;;;;;;-142.57;100.00;68379.81;5015582;28;20921;-79
2022/09/23 08:08:05;;;;;;;9.88;3.72;;;;;;;-142.57;100.00;68379.81;5013937;28;20036;-78
2022/09/23 08:10:31;;;;;;;5.13;2.60;;;;;;;-142.57;100.00;68379.81;5013498;28;20028;-78
2022/09/23 08:12:58;;;;;;;7.72;3.47;;;;;;;-142.57;100.00;68379.81;5018870;28;20052;-75
2022/09/23 08:15:24;;;;;;;5.00;2.55;;;;;;;-142.57;100.00;68379.81;5017966;28;20074;-78
2022/09/23 08:17:50;;;;;;;4.13;2.95;;;;;;;-142.57;100.00;68379.81;5001268;28;20036;-79
2022/09/23 08:20:43;;;;;;;6.40;2.65;;;;;;;-142.57;100.00;68379.81;5018662;28;20028;-79
2022/09/23 08:23:01;;;;;;;8.90;3.03;;;;;;;-142.57;100.00;68379.81;5005856;28;20874;-79
2022/09/23 08:25:26;;;;;;;6.20;3.08;;;;;;;-142.57;100.00;68379.81;5026522;28;20019;-79
2022/09/23 08:27:51;;;;;;;9.18;2.67;;;;;;;-142.57;100.00;68379.81;5019363;28;20938;-79
2022/09/23 08:30:17;;;;;;;5.40;2.95;;;;;;;-142.57;100.00;68379.81;5005577;28;20203;-79
2022/09/23 08:32:42;;;;;;;6.10;2.67;;;;;;;-142.57;100.00;68379.81;5015163;28;20029;-78
2022/09/23 08:35:08;;;;;;;6.70;2.40;;;;;;;-142.57;100.00;68379.81;5015237;28;20086;-78
2022/09/23 08:37:33;;;;;;;11.15;3.03;;;;;;;-142.57;100.00;68379.81;5016474;28;20028;-79
2022/09/23 08:39:58;;;;;;;7.38;2.63;;;;;;;-142.57;100.00;68379.81;5044976;28;20436;-78
2022/09/23 08:42:29;;;;;;;4.95;2.35;;;;;;;-142.57;100.00;68379.81;5025043;28;20029;-79
2022/09/23 08:44:57;;;;;;;5.75;3.15;;;;;;;-142.57;100.00;68379.81;5027944;28;20028;-78
2022/09/23 08:47:52;;;;;;;5.47;2.78;;;;;;;-142.57;100.00;68379.81;5048093;28;20025;-78
2022/09/23 08:50:28;;;;;;;4.80;2.40;;;;;;;-142.57;100.00;68379.81;5045059;28;20494;-78
2022/09/23 08:53:04;;;;;;;6.50;2.47;;;;;;;-142.57;100.00;68379.81;5048462;28;20112;-78
2022/09/23 08:55:43;;;;;;;5.90;2.67;;;;;;;-142.57;100.00;68379.81;5056849;28;20029;-78
2022/09/23 08:58:23;;;;;;;10.30;2.88;;;;;;;-142.57;100.00;68379.81;5043477;28;20041;-77
2022/09/23 09:00:58;;;;;;;7.30;2.60;;;;;;;-142.57;100.00;68379.81;5054169;28;20472;-78
2022/09/23 09:03:25;;;;;;;5.07;2.50;;;;;;;-142.57;100.00;68379.81;5044830;28;20048;-78
2022/09/23 09:05:52;;;;;;;7.70;2.83;;;;;;;-142.57;100.00;68379.81;5046786;28;20391;-77
2022/09/23 09:08:23;;;;;;;6.97;2.65;;;;;;;-142.57;100.00;68379.81;5024485;28;20446;-78
2022/09/23 09:10:52;;;;;;;6.78;2.25;;;;;;;-142.57;100.00;68379.81;5031685;28;20021;-78
2022/09/23 09:13:34;;;;;;;5.00;2.30;;;;;;;-142.57;100.00;68379.81;5046148;28;20071;-78
2022/09/23 09:15:59;;;;;;;4.43;2.45;;;;;;;-142.57;100.00;68379.81;5055310;28;20025;-76
2022/09/23 09:18:26;;;;;;;3.25;1.88;;;;;;;-142.57;100.00;68379.81;5054847;28;20367;-78
2022/09/23 09:21:08;;;;;;;4.10;1.38;;;;;;;-142.57;100.00;68379.81;5048441;28;20028;-76
2022/09/23 09:23:42;;;;;;;5.85;1.95;;;;;;;-142.57;100.00;68379.81;5033783;28;20135;-76
2022/09/23 09:26:10;;;;;;;;;;;;;;;-142.57;100.00;68379.81;5058793;28;20028;-78
2022/09/23 09:28:47;;;;;;;5.60;2.15;;;;;;;-142.57;100.00;68379.81;5040510;28;19920;-78
2022/09/23 09:31:35;;;;;;;15.63;2.60;;;;;;;-142.57;100.00;68379.81;5041515;28;20468;-79
2022/09/23 09:34:02;;;;;;;6.78;2.97;;;;;;;-142.57;100.00;68379.81;5059229;28;20431;-78
2022/09/23 09:36:31;;;;;;;11.45;2.55;;;;;;;-142.57;100.00;68379.81;5057469;28;20023;-79
2022/09/23 09:38:58;;;;;;;3.72;2.08;;;;;;;-142.57;100.00;68379.81;5055422;28;20024;-79
2022/09/23 09:41:26;;;;;;;7.63;2.67;;;;;;;-142.57;100.00;68379.81;5052233;28;20025;-77
2022/09/23 09:43:56;;;;;;;7.43;2.80;;;;;;;-142.57;100.00;68379.81;5028919;28;20706;-80
2022/09/23 09:46:24;;;;;;;5.53;2.30;;;;;;;-142.57;100.00;68379.81;5037056;28;20025;-79
2022/09/23 09:48:59;;;;;;;7.28;1.98;;;;;;;-142.57;100.00;68379.81;5052383;28;20044;-80
2022/09/23 09:51:26;;;;;;;;;;;;;;;-142.57;100.00;68379.81;5052032;28;20146;-74
2022/09/23 09:53:52;;;;;;;6.32;2.35;;;;;;;-142.57;100.00;68379.81;5078127;28;19916;-78
2022/09/23 09:56:32;;;;;;;8.90;3.55;;;;;;;-142.57;100.00;68379.81;5042927;28;20545;-80
2022/09/23 09:59:00;;;;;;;9.02;3.05;;;;;;;-142.57;100.00;68379.81;5044952;28;20025;-81
2022/09/23 10:01:31;;;;;;;6.13;2.72;;;;;;;-142.57;100.00;68379.81;5028546;28;20020;-81
2022/09/23 10:03:58;;;;;;;7.70;3.05;;;;;;;-142.57;100.00;68379.81;5042465;28;20029;-78
2022/09/23 10:06:25;;;;;;;10.38;3.53;;;;;;;-142.57;100.00;68379.81;5014982;28;20443;-79
2022/09/23 10:09:02;;;;;;;8.85;3.33;;;;;;;-142.57;100.00;68379.81;5046411;28;20139;-81
2022/09/23 10:11:28;;;;;;;5.78;1.98;;;;;;;-142.57;100.00;68379.81;5064803;28;20032;-81
2022/09/23 10:14:12;;;;;;;6.28;2.20;;;;;;;-142.57;100.00;68379.81;5046101;28;20032;-81
2022/09/23 10:16:38;;;;;;;9.55;2.50;;;;;;;-142.57;100.00;68379.81;5044042;28;20081;-81
2022/09/23 10:19:17;;;;;;;6.20;2.22;;;;;;;-142.57;100.00;68379.81;5062076;28;20025;-80
2022/09/23 10:21:43;;;;;;;4.93;2.25;;;;;;;-142.57;100.00;68379.81;5050745;28;20037;-82
2022/09/23 10:24:19;;;;;;;4.78;2.22;;;;;;;-142.57;100.00;68379.81;5054387;28;20037;-81
2022/09/23 10:26:53;;;;;;;5.15;2.60;;;;;;;-142.57;100.00;68379.81;5009557;28;20056;-76
2022/09/23 10:29:28;;;;;;;8.65;2.20;;;;;;;-142.57;100.00;68379.81;5006974;28;20028;-76
2022/09/23 10:32:21;;;;;;;3.97;1.98;;;;;;;-142.57;100.00;68379.81;5034875;28;20029;-71
2022/09/23 10:34:54;;;;;;;4.03;1.90;;;;;;;-142.57;100.00;68379.81;4997392;28;20080;-74
2022/09/23 10:37:40;;;;;;;6.38;2.10;;;;;;;-142.57;100.00;68379.81;4985738;28;20192;-74
2022/09/23 10:46:53;;;;;;;12.73;2.30;;;;;;;-142.57;100.00;68379.81;5001470;28;20797;-80
2022/09/23 10:49:08;;;;;;;4.85;1.90;;;;;;;-142.57;100.00;68379.81;5003131;28;20160;-80
2022/09/23 10:51:52;;;;;;;9.70;2.70;;;;;;;-142.57;100.00;68379.81;5031300;28;20029;-80
2022/09/23 10:54:44;;;;;;;9.85;2.53;;;;;;;-142.57;100.00;68379.81;5016605;28;20017;-73
2022/09/23 10:57:41;;;;;;;5.97;2.25;;;;;;;-142.57;100.00;68379.81;4998224;28;20057;-70
2022/09/23 11:00:09;;;;;;;8.32;1.85;;;;;;;-142.57;100.00;68379.81;5013673;28;20025;-78
2022/09/23 11:02:43;;;;;;;3.22;1.73;;;;;;;-142.57;100.00;68379.81;5009445;28;20029;-78
2022/09/23 11:05:43;;;;;;;2.97;1.33;;;;;;;-142.57;100.00;68379.81;5012134;28;20859;-77
2022/09/23 11:08:38;;;;;;;4.00;1.58;;;;;;;-142.57;100.00;68379.81;4974398;28;20156;-76
2022/09/23 11:11:20;;;;;;;4.43;1.65;;;;;;;-142.57;100.00;68379.81;5015291;28;20028;-78
2022/09/23 11:14:15;;;;;;;3.80;1.67;;;;;;;-142.57;100.00;68379.81;5034253;28;20032;-72
2022/09/23 11:16:50;;;;;;;3.85;1.42;;;;;;;-142.57;100.00;68379.81;5023282;28;20029;-72
2022/09/23 11:19:44;;;;;;;8.00;2.42;;;;;;;-142.57;100.00;68379.81;5019319;28;20852;-73
2022/09/23 11:22:34;;;;;;;7.45;2.00;;;;;;;-142.57;100.00;68379.81;5013112;28;20036;-78
2022/09/23 11:25:55;;;;;;;10.77;1.92;;;;;;;-142.57;100.00;68379.81;5014683;28;20060;-77
2022/09/23 11:28:29;;;;;;;4.53;1.52;;;;;;;-142.57;100.00;68379.81;4995607;28;20017;-77
2022/09/23 11:31:13;;;;;;;3.33;1.40;;;;;;;-142.57;100.00;68379.81;5008842;28;20146;-79
2022/09/23 11:33:51;;;;;;;5.95;2.00;;;;;;;-142.57;100.00;68379.81;5019770;28;20152;-78
2022/09/23 11:36:25;;;;;;;7.40;2.17;;;;;;;-142.57;100.00;68379.81;5025998;28;20029;-76
2022/09/23 11:38:51;;;;;;;3.60;1.75;;;;;;;-142.57;100.00;68379.81;5003642;28;20021;-77
2022/09/23 11:41:28;;;;;;;3.70;1.52;;;;;;;-142.57;100.00;68379.81;5009984;28;20021;-77